• Join FlightAware (Why Join?)
  • Login
  • US Flag 
04:47PM EDT


 

Airport Tracker/Info


-or-


 

Live Flight TrackerFlight Track Log ✈ N983CA ✈ 19-Apr-2013 ✈ KSFO - KABQ

Flight Track Log - Related Links

Times and Time Zones

All times are in EDT time to prevent confusion due to time zone crossing. See the N983CA flight status page for this flight to view local times or setup timezone preferences in your user account.

Time Position Orientation Groundspeed Altitude Reporting Facility
EDT Latitude Longitude Course Direction KTS MPH feet Rate Location/Type
04:02PM 37.6500 -122.3667 133° Southeast 164 189 1,500  Level Northern Cal TRACON
04:03PM 37.7000 -122.3667 360° North 219 252 3,900 2,280 Climbing Northern Cal TRACON
04:04PM 37.6833 -122.4333 252° West 247 284 6,200 2,400 Climbing Northern Cal TRACON
04:05PM 37.6000 -122.4500 189° South 289 333 8,800 2,100 Climbing Northern Cal TRACON
04:05PM 37.5981 -122.4394 103° East 273 314 8,900 1,860 Climbing Oakland Center
04:06PM 37.2727 -122.1174 130° Southeast  Level FlightAware Approximate
04:06PM 37.5133 -122.3647 145° Southeast 309 356 11,200  Level Oakland Center
04:07PM 37.1824 -121.9988 133° Southeast  Level FlightAware Approximate
04:07PM 37.4344 -122.2978 146° Southeast 338 389 13,000  Level Oakland Center
04:08PM 37.3614 -122.2119 137° Southeast 367 422 14,800 1,740 Climbing Oakland Center
04:09PM 37.3381 -122.0903 104° East 365 420 16,600 1,380 Climbing Oakland Center
04:10PM 37.3147 -121.9661 103° East 367 422 17,700 1,140 Climbing Oakland Center
04:11PM 37.2900 -121.8364 103° East 380 437 19,000 1,380 Climbing Oakland Center
04:12PM 37.2611 -121.6803 103° East 394 453 20,600 1,320 Climbing Oakland Center
04:13PM 37.2347 -121.5439 104° East 401 461 21,800 1,020 Climbing Oakland Center
04:14PM 37.2072 -121.4067 104° East 405 466 22,700 900 Climbing Oakland Center
04:15PM 37.1794 -121.2647 104° East 416 479 23,700 960 Climbing Oakland Center
04:16PM 37.1517 -121.1211 104° East 423 487 24,700 840 Climbing Oakland Center
04:17PM 37.1222 -120.9764 104° East 427 491 25,500 720 Climbing Oakland Center
04:18PM 37.0928 -120.8267 104° East 439 505 26,200 720 Climbing Oakland Center
04:19PM 37.0564 -120.6469 104° East 448 516 27,000 720 Climbing Oakland Center
04:20PM 37.0264 -120.4964 104° East 453 521 27,700 480 Climbing Oakland Center
04:21PM 36.9922 -120.3444 106° East 460 529 28,000 300 Climbing Oakland Center
04:22PM 36.9625 -120.1858 103° East 469 540 28,400 600 Climbing Oakland Center
04:23PM 36.9378 -120.0317 101° East 465 535 29,300 780 Climbing Oakland Center
04:24PM 36.9133 -119.8750 101° East 460 529 30,000 720 Climbing Oakland Center
04:25PM 36.8892 -119.7175 101° East 462 532 30,800 720 Climbing Oakland Center
04:26PM 36.8578 -119.5300 102° East 459 528 31,500 660 Climbing Oakland Center
04:27PM 36.8322 -119.3753 102° East 455 524 32,200 540 Climbing Oakland Center
04:28PM 36.8075 -119.2208 101° East 455 524 32,700 360 Climbing Oakland Center
04:30PM 36.7817 -119.0647 102° East 459 528 33,000 120 Climbing Oakland Center
04:31PM 36.7547 -118.9044 102° East 472 543 33,000  Level Oakland Center
04:32PM 36.7267 -118.7422 102° East 481 554 33,000  Level Oakland Center
04:33PM 36.6981 -118.5783 102° East 486 559 33,000  Level Oakland Center
04:34PM 36.6675 -118.4078 103° East 480 552 33,000  Level Oakland Center
04:35PM 36.6411 -118.2469 102° East 475 547 33,000  Level Oakland Center
04:36PM 36.6125 -118.0867 102° East 475 547 33,000  Level Oakland Center
04:37PM 36.5783 -117.8947 102° East 475 547 33,000  Level Oakland Center
04:38PM 36.5503 -117.7367 102° East 471 542 33,000  Level Oakland Center
04:39PM 36.5208 -117.5764 103° East 475 547 33,000  Level Oakland Center
04:39PM 36.5183 -117.5564 99° East 471 542 33,000  Level Los Angeles Center
04:40PM 36.4886 -117.3944 103° East 476 548 33,000  Level Los Angeles Center
04:41PM 36.4539 -117.2011 103° East 478 550 33,000  Level Los Angeles Center
04:42PM 36.4239 -117.0389 103° East 479 551 33,000  Level Los Angeles Center
04:43PM 36.3942 -116.8775 103° East 481 554 33,000  Level Los Angeles Center
04:44PM 36.3694 -116.7478 103° East 481 554 33,000  Level Los Angeles Center
04:45PM 36.3325 -116.5519 103° East 485 558 33,000  Level Los Angeles Center
04:46PM 36.3008 -116.3894 104° East 486 559 33,000  Level Los Angeles Center
04:47PM 36.2636 -116.1928 103° East 488 562 33,000  Level Los Angeles Center
04:48PM 36.2506 -116.0186 95° East 485 558 33,000  Level Los Angeles Center
04:49PM 36.2358 -115.8461 96° East 484 557 33,000  Level Los Angeles Center
04:50PM 36.2228 -115.6825 96° East 485 558 33,000  Level Los Angeles Center
04:51PM 36.2081 -115.5231 96° East 483 556 33,000  Level Los Angeles Center
04:52PM 36.1958 -115.3611 95° East 483 556 33,000  Level Los Angeles Center
04:53PM 36.1783 -115.1631 96° East 486 559 33,000  Level Los Angeles Center
04:55PM 36.1644 -114.9981 96° East 487 560 33,000  Level Los Angeles Center
04:56PM 36.1497 -114.8336 96° East 484 557 33,000  Level Los Angeles Center
04:57PM 36.1347 -114.6697 96° East 482 555 33,000  Level Los Angeles Center
04:58PM 36.1206 -114.5053 96° East 481 554 33,000  Level Los Angeles Center
04:59PM 36.1022 -114.3094 97° East 480 552 33,000  Level Los Angeles Center
05:00PM 36.0869 -114.1478 97° East 477 549 33,000  Level Los Angeles Center
05:01PM 36.0719 -113.9856 96° East 476 548 33,000  Level Los Angeles Center
05:02PM 36.0567 -113.8242 97° East 474 545 33,000  Level Los Angeles Center
05:03PM 36.0408 -113.6631 97° East 474 545 33,000  Level Los Angeles Center
05:04PM 36.0253 -113.5028 97° East 472 543 33,000  Level Los Angeles Center
05:05PM 36.0061 -113.3103 97° East 471 542 33,000  Level Los Angeles Center
05:06PM 35.9919 -113.1703 97° East 472 543 33,000  Level Los Angeles Center
05:07PM 35.9728 -112.9786 97° East 472 543 33,000  Level Los Angeles Center
05:08PM 35.9558 -112.8189 97° East 472 543 33,000  Level Los Angeles Center
05:09PM 35.9394 -112.6569 97° East 473 544 33,000  Level Los Angeles Center
05:10PM 35.9228 -112.4972 97° East 471 542 33,000  Level Los Angeles Center
05:11PM 35.9047 -112.3369 98° East 472 543 33,000  Level Los Angeles Center
05:12PM 35.8869 -112.1753 98° East 474 545 33,000  Level Los Angeles Center
05:13PM 35.8656 -111.9825 98° East 475 547 33,000  Level Los Angeles Center
05:14PM 35.8464 -111.8208 98° East 478 550 33,000  Level Los Angeles Center
05:15PM 35.8289 -111.6600 98° East 476 548 33,000  Level Los Angeles Center
05:16PM 35.8128 -111.5314 99° East 479 551 33,000  Level Albuquerque Center
05:17PM 35.7944 -111.3797 98° East 478 550 33,000  Level Albuquerque Center
05:18PM 35.7758 -111.1997 97° East 476 548 33,000  Level Albuquerque Center
05:19PM 35.7544 -111.0453 100° East 476 548 33,000  Level Albuquerque Center
05:20PM 35.7339 -110.8650 98° East 478 550 33,000  Level Albuquerque Center
05:21PM 35.7147 -110.7108 99° East 477 549 33,000  Level Albuquerque Center
05:22PM 35.6928 -110.5314 99° East 476 548 33,000  Level Albuquerque Center
05:23PM 35.6739 -110.3786 99° East 474 545 33,000  Level Albuquerque Center
05:24PM 35.6517 -110.1989 99° East 476 548 33,000  Level Albuquerque Center
05:25PM 35.6322 -110.0456 99° East 475 547 33,000  Level Albuquerque Center
05:26PM 35.6097 -109.8689 99° East 472 543 33,000  Level Albuquerque Center
05:27PM 35.5897 -109.7167 99° East 473 544 33,000  Level Albuquerque Center
05:28PM 35.5672 -109.5386 99° East 473 544 33,000 -240 Level Albuquerque Center
05:29PM 35.5458 -109.3844 100° East 477 549 32,600 -780 Descending Albuquerque Center
05:30PM 35.5206 -109.2006 100° East 489 563 31,500 -1,020 Descending Albuquerque Center
05:32PM 35.4994 -109.0425 99° East 493 567 30,500 -1,020 Descending Albuquerque Center
05:33PM 35.4767 -108.8586 99° East 491 565 29,400 -780 Descending Albuquerque Center
05:34PM 35.4803 -108.7083 88° East 468 539 29,000 -240 Descending Albuquerque Center
05:35PM 35.4836 -108.5317 89° East 466 536 29,000  Level Albuquerque Center
05:36PM 35.4872 -108.3797 88° East 467 537 29,000 -600 Level Albuquerque Center
05:37PM 35.4775 -108.1983 94° East 480 552 27,800 -1,440 Descending Albuquerque Center
05:38PM 35.4681 -108.0469 94° East 472 543 26,100 -1,800 Descending Albuquerque Center
05:39PM 35.4553 -107.8683 95° East 472 543 24,100 -1,740 Descending Albuquerque Center
05:40PM 35.4464 -107.7206 94° East 460 529 22,600 -1,620 Descending Albuquerque Center
05:41PM 35.4356 -107.5667 95° East 415 478 20,800 -1,800 Descending Albuquerque Center
05:42PM 35.4278 -107.4428 94° East 400 460 19,200 -1,620 Descending Albuquerque Center
05:43PM 35.3975 -107.3125 106° East 379 436 17,600 -1,620 Descending Albuquerque Center
05:44PM 35.3478 -107.2211 124° Southeast 343 395 16,000 -2,100 Descending Albuquerque Center
05:45PM 35.2903 -107.1081 122° Southeast 335 386 13,400 -2,040 Descending Albuquerque Center
05:46PM 35.2267 -107.0303 135° Southeast 321 369 11,500 -1,800 Descending Albuquerque Center
05:47PM 35.1622 -106.9561 137° Southeast 297 342 9,700 -1,500 Descending Albuquerque Center
05:48PM 35.1064 -106.8925 137° Southeast 270 311 8,600 -840 Descending Albuquerque Center
05:49PM 35.0508 -106.8231 134° Southeast 283 326 8,000 -540 Descending Albuquerque Center
05:50PM 35.0450 -106.7475 95° East 196 226 7,500 -540 Descending Albuquerque Center